sensor_id;sensor_type;location;lat;lon;timestamp;P1;durP1;ratioP1;P2;durP2;ratioP2
15449;SDS011;7826;49.784;9.934;2023-04-24T00:01:01;5.60;;;5.10;;
15449;SDS011;7826;49.784;9.934;2023-04-24T00:03:27;4.73;;;4.33;;
15449;SDS011;7826;49.784;9.934;2023-04-24T00:05:54;5.63;;;5.13;;
15449;SDS011;7826;49.784;9.934;2023-04-24T00:08:21;5.57;;;4.90;;
15449;SDS011;7826;49.784;9.934;2023-04-24T00:10:48;5.93;;;5.33;;
15449;SDS011;7826;49.784;9.934;2023-04-24T00:13:15;5.00;;;4.60;;
15449;SDS011;7826;49.784;9.934;2023-04-24T00:15:41;5.40;;;4.90;;
15449;SDS011;7826;49.784;9.934;2023-04-24T00:18:07;6.30;;;5.70;;
15449;SDS011;7826;49.784;9.934;2023-04-24T00:20:34;5.87;;;4.90;;
15449;SDS011;7826;49.784;9.934;2023-04-24T00:23:03;6.63;;;5.03;;
15449;SDS011;7826;49.784;9.934;2023-04-24T00:25:29;5.07;;;4.67;;
15449;SDS011;7826;49.784;9.934;2023-04-24T00:27:56;6.33;;;4.97;;
15449;SDS011;7826;49.784;9.934;2023-04-24T00:30:22;5.37;;;4.87;;
15449;SDS011;7826;49.784;9.934;2023-04-24T00:32:49;5.57;;;5.07;;
15449;SDS011;7826;49.784;9.934;2023-04-24T00:35:15;6.50;;;5.30;;
15449;SDS011;7826;49.784;9.934;2023-04-24T00:37:42;5.50;;;5.00;;
15449;SDS011;7826;49.784;9.934;2023-04-24T00:40:09;6.00;;;5.37;;
15449;SDS011;7826;49.784;9.934;2023-04-24T00:42:36;6.67;;;6.00;;
15449;SDS011;7826;49.784;9.934;2023-04-24T00:45:03;7.90;;;5.17;;
15449;SDS011;7826;49.784;9.934;2023-04-24T00:47:30;5.53;;;5.03;;
15449;SDS011;7826;49.784;9.934;2023-04-24T00:50:00;6.73;;;5.30;;
15449;SDS011;7826;49.784;9.934;2023-04-24T00:52:31;6.10;;;5.03;;
15449;SDS011;7826;49.784;9.934;2023-04-24T00:54:58;5.97;;;5.43;;
15449;SDS011;7826;49.784;9.934;2023-04-24T00:57:25;5.80;;;5.30;;
15449;SDS011;7826;49.784;9.934;2023-04-24T00:59:52;5.90;;;5.30;;
15449;SDS011;7826;49.784;9.934;2023-04-24T01:02:19;6.80;;;5.73;;
15449;SDS011;7826;49.784;9.934;2023-04-24T01:04:46;6.07;;;5.50;;
15449;SDS011;7826;49.784;9.934;2023-04-24T01:07:13;5.30;;;4.80;;
15449;SDS011;7826;49.784;9.934;2023-04-24T01:09:40;6.20;;;5.60;;
15449;SDS011;7826;49.784;9.934;2023-04-24T01:12:09;5.80;;;5.30;;
15449;SDS011;7826;49.784;9.934;2023-04-24T01:14:37;7.27;;;5.70;;
15449;SDS011;7826;49.784;9.934;2023-04-24T01:17:05;5.90;;;5.37;;
15449;SDS011;7826;49.784;9.934;2023-04-24T01:19:31;6.20;;;5.60;;
15449;SDS011;7826;49.784;9.934;2023-04-24T01:21:58;6.10;;;5.50;;
15449;SDS011;7826;49.784;9.934;2023-04-24T01:24:28;5.93;;;5.33;;
15449;SDS011;7826;49.784;9.934;2023-04-24T01:26:56;6.83;;;5.90;;
15449;SDS011;7826;49.784;9.934;2023-04-24T01:29:22;7.20;;;5.53;;
15449;SDS011;7826;49.784;9.934;2023-04-24T01:31:49;6.37;;;5.67;;
15449;SDS011;7826;49.784;9.934;2023-04-24T01:34:16;7.17;;;6.43;;
15449;SDS011;7826;49.784;9.934;2023-04-24T01:36:43;6.27;;;5.67;;
15449;SDS011;7826;49.784;9.934;2023-04-24T01:39:12;6.90;;;5.70;;
15449;SDS011;7826;49.784;9.934;2023-04-24T01:41:39;6.43;;;5.67;;
15449;SDS011;7826;49.784;9.934;2023-04-24T01:44:05;6.30;;;5.80;;
15449;SDS011;7826;49.784;9.934;2023-04-24T01:46:31;6.83;;;5.70;;
15449;SDS011;7826;49.784;9.934;2023-04-24T01:49:00;6.07;;;5.57;;
15449;SDS011;7826;49.784;9.934;2023-04-24T01:51:27;6.50;;;5.90;;
15449;SDS011;7826;49.784;9.934;2023-04-24T01:53:54;6.33;;;5.73;;
15449;SDS011;7826;49.784;9.934;2023-04-24T01:56:21;6.93;;;6.23;;
15449;SDS011;7826;49.784;9.934;2023-04-24T01:58:48;7.03;;;6.20;;
15449;SDS011;7826;49.784;9.934;2023-04-24T02:01:18;6.53;;;5.83;;
15449;SDS011;7826;49.784;9.934;2023-04-24T02:03:45;6.83;;;6.23;;
15449;SDS011;7826;49.784;9.934;2023-04-24T02:06:13;7.67;;;5.90;;
15449;SDS011;7826;49.784;9.934;2023-04-24T02:08:39;6.20;;;5.60;;
15449;SDS011;7826;49.784;9.934;2023-04-24T02:11:06;7.07;;;6.00;;
15449;SDS011;7826;49.784;9.934;2023-04-24T02:13:34;6.73;;;5.90;;
15449;SDS011;7826;49.784;9.934;2023-04-24T02:16:01;7.17;;;5.37;;
15449;SDS011;7826;49.784;9.934;2023-04-24T02:18:27;6.60;;;5.70;;
15449;SDS011;7826;49.784;9.934;2023-04-24T02:20:54;5.87;;;5.33;;
15449;SDS011;7826;49.784;9.934;2023-04-24T02:23:20;6.90;;;5.50;;
15449;SDS011;7826;49.784;9.934;2023-04-24T02:25:47;6.57;;;5.30;;
15449;SDS011;7826;49.784;9.934;2023-04-24T02:28:13;6.23;;;5.63;;
15449;SDS011;7826;49.784;9.934;2023-04-24T02:30:40;6.13;;;5.53;;
15449;SDS011;7826;49.784;9.934;2023-04-24T02:33:07;6.33;;;5.67;;
15449;SDS011;7826;49.784;9.934;2023-04-24T02:35:33;6.30;;;5.70;;
15449;SDS011;7826;49.784;9.934;2023-04-24T02:37:59;7.00;;;6.27;;
15449;SDS011;7826;49.784;9.934;2023-04-24T02:40:26;6.73;;;5.87;;
15449;SDS011;7826;49.784;9.934;2023-04-24T02:42:53;6.47;;;5.87;;
15449;SDS011;7826;49.784;9.934;2023-04-24T02:45:19;6.07;;;5.47;;
15449;SDS011;7826;49.784;9.934;2023-04-24T02:47:46;6.33;;;5.77;;
15449;SDS011;7826;49.784;9.934;2023-04-24T02:50:12;6.20;;;5.60;;
15449;SDS011;7826;49.784;9.934;2023-04-24T02:52:39;6.00;;;5.23;;
15449;SDS011;7826;49.784;9.934;2023-04-24T02:55:06;6.07;;;5.47;;
15449;SDS011;7826;49.784;9.934;2023-04-24T02:57:33;7.00;;;6.10;;
15449;SDS011;7826;49.784;9.934;2023-04-24T03:00:00;6.13;;;5.50;;
15449;SDS011;7826;49.784;9.934;2023-04-24T03:02:26;8.43;;;6.70;;
15449;SDS011;7826;49.784;9.934;2023-04-24T03:04:53;6.67;;;5.97;;
15449;SDS011;7826;49.784;9.934;2023-04-24T03:07:19;8.10;;;6.00;;
15449;SDS011;7826;49.784;9.934;2023-04-24T03:09:46;6.13;;;5.53;;
15449;SDS011;7826;49.784;9.934;2023-04-24T03:12:14;6.57;;;5.87;;
15449;SDS011;7826;49.784;9.934;2023-04-24T03:14:40;6.43;;;5.83;;
15449;SDS011;7826;49.784;9.934;2023-04-24T03:17:07;6.47;;;5.43;;
15449;SDS011;7826;49.784;9.934;2023-04-24T03:19:33;5.63;;;5.13;;
15449;SDS011;7826;49.784;9.934;2023-04-24T03:22:03;6.13;;;5.63;;
15449;SDS011;7826;49.784;9.934;2023-04-24T03:24:30;8.43;;;5.77;;
15449;SDS011;7826;49.784;9.934;2023-04-24T03:26:57;6.07;;;5.47;;
15449;SDS011;7826;49.784;9.934;2023-04-24T03:29:24;6.77;;;5.33;;
15449;SDS011;7826;49.784;9.934;2023-04-24T03:31:50;5.60;;;5.07;;
15449;SDS011;7826;49.784;9.934;2023-04-24T03:34:17;5.53;;;4.93;;
15449;SDS011;7826;49.784;9.934;2023-04-24T03:36:44;6.03;;;5.30;;
15449;SDS011;7826;49.784;9.934;2023-04-24T03:39:13;6.60;;;5.23;;
15449;SDS011;7826;49.784;9.934;2023-04-24T03:41:39;5.27;;;4.50;;
15449;SDS011;7826;49.784;9.934;2023-04-24T03:44:05;4.50;;;4.10;;
15449;SDS011;7826;49.784;9.934;2023-04-24T03:46:32;4.90;;;4.00;;
15449;SDS011;7826;49.784;9.934;2023-04-24T03:48:58;4.47;;;4.07;;
15449;SDS011;7826;49.784;9.934;2023-04-24T03:51:24;5.77;;;3.93;;
15449;SDS011;7826;49.784;9.934;2023-04-24T03:53:50;4.57;;;4.07;;
15449;SDS011;7826;49.784;9.934;2023-04-24T03:56:17;4.30;;;3.90;;
15449;SDS011;7826;49.784;9.934;2023-04-24T03:58:43;4.60;;;4.20;;
15449;SDS011;7826;49.784;9.934;2023-04-24T04:01:09;3.93;;;3.63;;
15449;SDS011;7826;49.784;9.934;2023-04-24T04:03:37;4.33;;;3.60;;
15449;SDS011;7826;49.784;9.934;2023-04-24T04:06:04;5.07;;;3.73;;
15449;SDS011;7826;49.784;9.934;2023-04-24T04:08:30;3.93;;;3.40;;
15449;SDS011;7826;49.784;9.934;2023-04-24T04:10:56;3.70;;;3.40;;
15449;SDS011;7826;49.784;9.934;2023-04-24T04:13:23;3.70;;;3.40;;
15449;SDS011;7826;49.784;9.934;2023-04-24T04:15:49;3.20;;;2.80;;
15449;SDS011;7826;49.784;9.934;2023-04-24T04:18:16;3.30;;;2.70;;
15449;SDS011;7826;49.784;9.934;2023-04-24T04:20:42;3.73;;;2.93;;
15449;SDS011;7826;49.784;9.934;2023-04-24T04:23:08;3.07;;;2.80;;
15449;SDS011;7826;49.784;9.934;2023-04-24T04:25:35;2.80;;;2.60;;
15449;SDS011;7826;49.784;9.934;2023-04-24T04:28:01;2.83;;;2.63;;
15449;SDS011;7826;49.784;9.934;2023-04-24T04:30:27;3.40;;;3.00;;
15449;SDS011;7826;49.784;9.934;2023-04-24T04:32:58;2.93;;;2.73;;
15449;SDS011;7826;49.784;9.934;2023-04-24T04:35:25;3.17;;;2.87;;
15449;SDS011;7826;49.784;9.934;2023-04-24T04:37:51;2.90;;;2.70;;
15449;SDS011;7826;49.784;9.934;2023-04-24T04:40:18;3.43;;;2.97;;
15449;SDS011;7826;49.784;9.934;2023-04-24T04:42:44;4.17;;;2.60;;
15449;SDS011;7826;49.784;9.934;2023-04-24T04:45:11;2.50;;;2.30;;
15449;SDS011;7826;49.784;9.934;2023-04-24T04:47:38;2.97;;;2.77;;
15449;SDS011;7826;49.784;9.934;2023-04-24T04:50:05;4.23;;;2.97;;
15449;SDS011;7826;49.784;9.934;2023-04-24T04:52:31;3.40;;;2.60;;
15449;SDS011;7826;49.784;9.934;2023-04-24T04:54:58;2.70;;;2.50;;
15449;SDS011;7826;49.784;9.934;2023-04-24T04:57:24;2.53;;;2.33;;
15449;SDS011;7826;49.784;9.934;2023-04-24T04:59:51;2.57;;;2.37;;
15449;SDS011;7826;49.784;9.934;2023-04-24T05:02:17;2.80;;;2.50;;
15449;SDS011;7826;49.784;9.934;2023-04-24T05:04:43;2.30;;;2.13;;
15449;SDS011;7826;49.784;9.934;2023-04-24T05:07:10;2.30;;;2.10;;
15449;SDS011;7826;49.784;9.934;2023-04-24T05:09:37;2.40;;;2.30;;
15449;SDS011;7826;49.784;9.934;2023-04-24T05:12:03;2.13;;;2.00;;
15449;SDS011;7826;49.784;9.934;2023-04-24T05:14:29;2.33;;;2.10;;
15449;SDS011;7826;49.784;9.934;2023-04-24T05:16:56;2.07;;;1.87;;
15449;SDS011;7826;49.784;9.934;2023-04-24T05:19:22;2.00;;;1.90;;
15449;SDS011;7826;49.784;9.934;2023-04-24T05:21:48;2.00;;;1.73;;
15449;SDS011;7826;49.784;9.934;2023-04-24T05:24:15;2.17;;;2.07;;
15449;SDS011;7826;49.784;9.934;2023-04-24T05:26:41;1.90;;;1.80;;
15449;SDS011;7826;49.784;9.934;2023-04-24T05:29:07;3.27;;;2.00;;
15449;SDS011;7826;49.784;9.934;2023-04-24T05:31:34;2.10;;;1.80;;
15449;SDS011;7826;49.784;9.934;2023-04-24T05:34:00;1.90;;;1.80;;
15449;SDS011;7826;49.784;9.934;2023-04-24T05:36:26;2.17;;;1.97;;
15449;SDS011;7826;49.784;9.934;2023-04-24T05:38:52;2.10;;;1.90;;
15449;SDS011;7826;49.784;9.934;2023-04-24T05:41:19;1.80;;;1.70;;
15449;SDS011;7826;49.784;9.934;2023-04-24T05:43:46;1.73;;;1.63;;
15449;SDS011;7826;49.784;9.934;2023-04-24T05:46:13;2.00;;;1.90;;
15449;SDS011;7826;49.784;9.934;2023-04-24T05:48:39;2.40;;;2.10;;
15449;SDS011;7826;49.784;9.934;2023-04-24T05:51:05;2.40;;;1.90;;
15449;SDS011;7826;49.784;9.934;2023-04-24T05:53:31;2.17;;;1.93;;
15449;SDS011;7826;49.784;9.934;2023-04-24T05:55:58;1.80;;;1.70;;
15449;SDS011;7826;49.784;9.934;2023-04-24T05:58:24;1.83;;;1.70;;
15449;SDS011;7826;49.784;9.934;2023-04-24T06:00:50;1.60;;;1.50;;
15449;SDS011;7826;49.784;9.934;2023-04-24T06:03:17;1.70;;;1.60;;
15449;SDS011;7826;49.784;9.934;2023-04-24T06:05:43;3.03;;;1.70;;
15449;SDS011;7826;49.784;9.934;2023-04-24T06:08:10;1.70;;;1.60;;
15449;SDS011;7826;49.784;9.934;2023-04-24T06:10:37;1.67;;;1.57;;
15449;SDS011;7826;49.784;9.934;2023-04-24T06:13:03;2.17;;;1.97;;
15449;SDS011;7826;49.784;9.934;2023-04-24T06:15:29;1.60;;;1.50;;
15449;SDS011;7826;49.784;9.934;2023-04-24T06:17:59;2.43;;;1.50;;
15449;SDS011;7826;49.784;9.934;2023-04-24T06:20:25;1.80;;;1.40;;
15449;SDS011;7826;49.784;9.934;2023-04-24T06:22:52;1.50;;;1.40;;
15449;SDS011;7826;49.784;9.934;2023-04-24T06:25:19;1.70;;;1.60;;
15449;SDS011;7826;49.784;9.934;2023-04-24T06:27:46;1.80;;;1.40;;
15449;SDS011;7826;49.784;9.934;2023-04-24T06:30:12;1.50;;;1.40;;
15449;SDS011;7826;49.784;9.934;2023-04-24T06:32:39;1.77;;;1.50;;
15449;SDS011;7826;49.784;9.934;2023-04-24T06:35:06;1.53;;;1.43;;
15449;SDS011;7826;49.784;9.934;2023-04-24T06:37:33;1.93;;;1.40;;
15449;SDS011;7826;49.784;9.934;2023-04-24T06:39:59;4.10;;;1.50;;
15449;SDS011;7826;49.784;9.934;2023-04-24T06:42:26;1.30;;;1.20;;
15449;SDS011;7826;49.784;9.934;2023-04-24T06:44:52;1.37;;;1.20;;
15449;SDS011;7826;49.784;9.934;2023-04-24T06:47:18;1.50;;;1.40;;
15449;SDS011;7826;49.784;9.934;2023-04-24T06:49:44;1.40;;;1.30;;
15449;SDS011;7826;49.784;9.934;2023-04-24T06:52:11;1.73;;;1.63;;
15449;SDS011;7826;49.784;9.934;2023-04-24T06:54:37;2.07;;;1.30;;
15449;SDS011;7826;49.784;9.934;2023-04-24T06:57:03;1.93;;;1.30;;
15449;SDS011;7826;49.784;9.934;2023-04-24T06:59:29;1.50;;;1.40;;
15449;SDS011;7826;49.784;9.934;2023-04-24T07:01:56;1.33;;;1.30;;
15449;SDS011;7826;49.784;9.934;2023-04-24T07:04:22;1.37;;;1.27;;
15449;SDS011;7826;49.784;9.934;2023-04-24T07:06:50;1.50;;;1.40;;
15449;SDS011;7826;49.784;9.934;2023-04-24T07:09:16;1.20;;;1.20;;
15449;SDS011;7826;49.784;9.934;2023-04-24T07:11:44;1.83;;;1.40;;
15449;SDS011;7826;49.784;9.934;2023-04-24T07:14:11;1.50;;;1.40;;
15449;SDS011;7826;49.784;9.934;2023-04-24T07:16:37;1.73;;;1.47;;
15449;SDS011;7826;49.784;9.934;2023-04-24T07:19:04;1.83;;;1.33;;
15449;SDS011;7826;49.784;9.934;2023-04-24T07:21:30;1.40;;;1.30;;
15449;SDS011;7826;49.784;9.934;2023-04-24T07:23:57;1.40;;;1.30;;
15449;SDS011;7826;49.784;9.934;2023-04-24T07:26:25;3.40;;;1.17;;
15449;SDS011;7826;49.784;9.934;2023-04-24T07:28:52;1.10;;;1.10;;
15449;SDS011;7826;49.784;9.934;2023-04-24T07:31:19;1.13;;;1.13;;
15449;SDS011;7826;49.784;9.934;2023-04-24T07:33:45;1.23;;;1.00;;
15449;SDS011;7826;49.784;9.934;2023-04-24T07:36:11;1.53;;;1.10;;
15449;SDS011;7826;49.784;9.934;2023-04-24T07:38:42;1.07;;;1.07;;
15449;SDS011;7826;49.784;9.934;2023-04-24T07:41:08;1.53;;;1.30;;
15449;SDS011;7826;49.784;9.934;2023-04-24T07:43:35;0.93;;;0.93;;
15449;SDS011;7826;49.784;9.934;2023-04-24T07:46:01;1.07;;;1.07;;
15449;SDS011;7826;49.784;9.934;2023-04-24T07:48:27;1.23;;;1.10;;
15449;SDS011;7826;49.784;9.934;2023-04-24T07:50:54;1.40;;;1.30;;
15449;SDS011;7826;49.784;9.934;2023-04-24T07:53:20;1.37;;;1.10;;
15449;SDS011;7826;49.784;9.934;2023-04-24T07:55:46;1.37;;;1.10;;
15449;SDS011;7826;49.784;9.934;2023-04-24T07:58:13;1.30;;;1.10;;
15449;SDS011;7826;49.784;9.934;2023-04-24T08:00:39;1.10;;;1.10;;
15449;SDS011;7826;49.784;9.934;2023-04-24T08:03:05;1.40;;;1.30;;
15449;SDS011;7826;49.784;9.934;2023-04-24T08:05:31;1.50;;;1.40;;
15449;SDS011;7826;49.784;9.934;2023-04-24T08:07:58;1.87;;;1.17;;
15449;SDS011;7826;49.784;9.934;2023-04-24T08:10:24;1.07;;;1.07;;
15449;SDS011;7826;49.784;9.934;2023-04-24T08:12:51;2.30;;;1.10;;
15449;SDS011;7826;49.784;9.934;2023-04-24T08:15:17;1.67;;;1.13;;
15449;SDS011;7826;49.784;9.934;2023-04-24T08:17:43;1.70;;;1.10;;
15449;SDS011;7826;49.784;9.934;2023-04-24T08:20:10;1.40;;;1.30;;
15449;SDS011;7826;49.784;9.934;2023-04-24T08:22:40;1.23;;;1.20;;
15449;SDS011;7826;49.784;9.934;2023-04-24T08:25:07;1.20;;;1.20;;
15449;SDS011;7826;49.784;9.934;2023-04-24T08:27:34;1.30;;;1.23;;
15449;SDS011;7826;49.784;9.934;2023-04-24T08:30:02;1.10;;;1.10;;
15449;SDS011;7826;49.784;9.934;2023-04-24T08:32:29;2.50;;;1.47;;
15449;SDS011;7826;49.784;9.934;2023-04-24T08:34:56;1.47;;;1.37;;
15449;SDS011;7826;49.784;9.934;2023-04-24T08:37:23;1.27;;;1.27;;
15449;SDS011;7826;49.784;9.934;2023-04-24T08:39:50;2.27;;;1.30;;
15449;SDS011;7826;49.784;9.934;2023-04-24T08:42:19;1.40;;;1.20;;
15449;SDS011;7826;49.784;9.934;2023-04-24T08:44:46;1.80;;;1.20;;
15449;SDS011;7826;49.784;9.934;2023-04-24T08:47:15;2.77;;;1.20;;
15449;SDS011;7826;49.784;9.934;2023-04-24T08:49:41;1.20;;;1.10;;
15449;SDS011;7826;49.784;9.934;2023-04-24T08:52:09;1.20;;;1.20;;
15449;SDS011;7826;49.784;9.934;2023-04-24T08:54:38;1.17;;;1.17;;
15449;SDS011;7826;49.784;9.934;2023-04-24T08:57:06;1.00;;;1.00;;
15449;SDS011;7826;49.784;9.934;2023-04-24T08:59:34;1.47;;;1.30;;
15449;SDS011;7826;49.784;9.934;2023-04-24T09:02:01;1.47;;;1.13;;
15449;SDS011;7826;49.784;9.934;2023-04-24T09:04:29;1.20;;;1.10;;
15449;SDS011;7826;49.784;9.934;2023-04-24T09:06:56;1.23;;;1.10;;
15449;SDS011;7826;49.784;9.934;2023-04-24T09:09:24;1.77;;;1.20;;
15449;SDS011;7826;49.784;9.934;2023-04-24T09:11:52;1.03;;;1.03;;
15449;SDS011;7826;49.784;9.934;2023-04-24T09:14:21;1.10;;;1.00;;
15449;SDS011;7826;49.784;9.934;2023-04-24T09:16:49;1.40;;;1.27;;
15449;SDS011;7826;49.784;9.934;2023-04-24T09:19:16;1.23;;;1.07;;
15449;SDS011;7826;49.784;9.934;2023-04-24T09:21:45;0.90;;;0.90;;
15449;SDS011;7826;49.784;9.934;2023-04-24T09:24:18;2.90;;;1.50;;
15449;SDS011;7826;49.784;9.934;2023-04-24T09:26:48;1.37;;;1.20;;
15449;SDS011;7826;49.784;9.934;2023-04-24T09:29:21;4.07;;;1.97;;
15449;SDS011;7826;49.784;9.934;2023-04-24T09:31:47;2.00;;;1.30;;
15449;SDS011;7826;49.784;9.934;2023-04-24T09:34:13;2.17;;;1.30;;
15449;SDS011;7826;49.784;9.934;2023-04-24T09:36:41;1.37;;;1.20;;
15449;SDS011;7826;49.784;9.934;2023-04-24T09:39:10;1.77;;;1.03;;
15449;SDS011;7826;49.784;9.934;2023-04-24T09:44:25;3.73;;;1.20;;
15449;SDS011;7826;49.784;9.934;2023-04-24T09:46:59;1.70;;;1.10;;
15449;SDS011;7826;49.784;9.934;2023-04-24T09:49:27;0.93;;;0.93;;
15449;SDS011;7826;49.784;9.934;2023-04-24T09:52:08;1.27;;;1.20;;
15449;SDS011;7826;49.784;9.934;2023-04-24T09:54:36;0.80;;;0.80;;
15449;SDS011;7826;49.784;9.934;2023-04-24T09:57:04;1.13;;;1.10;;
15449;SDS011;7826;49.784;9.934;2023-04-24T09:59:31;1.10;;;1.03;;
15449;SDS011;7826;49.784;9.934;2023-04-24T10:01:57;1.13;;;1.03;;
15449;SDS011;7826;49.784;9.934;2023-04-24T10:04:25;1.10;;;1.00;;
15449;SDS011;7826;49.784;9.934;2023-04-24T10:06:55;1.13;;;1.00;;
15449;SDS011;7826;49.784;9.934;2023-04-24T10:09:23;1.10;;;1.10;;
15449;SDS011;7826;49.784;9.934;2023-04-24T10:11:52;1.33;;;1.23;;
15449;SDS011;7826;49.784;9.934;2023-04-24T10:14:22;1.33;;;1.03;;
15449;SDS011;7826;49.784;9.934;2023-04-24T10:16:49;1.27;;;1.20;;
15449;SDS011;7826;49.784;9.934;2023-04-24T10:19:18;1.03;;;0.93;;
15449;SDS011;7826;49.784;9.934;2023-04-24T10:21:45;3.10;;;1.03;;
15449;SDS011;7826;49.784;9.934;2023-04-24T10:24:13;1.93;;;1.27;;
15449;SDS011;7826;49.784;9.934;2023-04-24T10:26:41;3.33;;;1.20;;
15449;SDS011;7826;49.784;9.934;2023-04-24T10:29:08;1.20;;;1.10;;
15449;SDS011;7826;49.784;9.934;2023-04-24T10:34:05;2.03;;;1.30;;
15449;SDS011;7826;49.784;9.934;2023-04-24T10:36:33;3.27;;;1.40;;
15449;SDS011;7826;49.784;9.934;2023-04-24T10:39:01;2.47;;;1.50;;
15449;SDS011;7826;49.784;9.934;2023-04-24T10:41:31;1.77;;;1.60;;
15449;SDS011;7826;49.784;9.934;2023-04-24T10:46:31;1.40;;;1.30;;
15449;SDS011;7826;49.784;9.934;2023-04-24T10:48:58;1.47;;;1.30;;
15449;SDS011;7826;49.784;9.934;2023-04-24T10:51:25;1.13;;;1.13;;
15449;SDS011;7826;49.784;9.934;2023-04-24T10:54:23;2.63;;;1.60;;
15449;SDS011;7826;49.784;9.934;2023-04-24T10:56:50;0.90;;;0.90;;
15449;SDS011;7826;49.784;9.934;2023-04-24T10:59:27;1.17;;;1.00;;
15449;SDS011;7826;49.784;9.934;2023-04-24T11:02:00;1.23;;;0.80;;
15449;SDS011;7826;49.784;9.934;2023-04-24T11:04:30;1.00;;;1.00;;
15449;SDS011;7826;49.784;9.934;2023-04-24T11:07:02;1.33;;;0.90;;
15449;SDS011;7826;49.784;9.934;2023-04-24T11:09:32;1.53;;;1.00;;
15449;SDS011;7826;49.784;9.934;2023-04-24T11:12:07;0.90;;;0.90;;
15449;SDS011;7826;49.784;9.934;2023-04-24T11:17:36;0.90;;;0.90;;
15449;SDS011;7826;49.784;9.934;2023-04-24T11:20:10;0.90;;;0.90;;
15449;SDS011;7826;49.784;9.934;2023-04-24T11:22:38;1.10;;;1.00;;
15449;SDS011;7826;49.784;9.934;2023-04-24T11:25:08;0.90;;;0.90;;
15449;SDS011;7826;49.784;9.934;2023-04-24T11:27:41;3.00;;;1.20;;
15449;SDS011;7826;49.784;9.934;2023-04-24T11:30:09;1.00;;;1.00;;
15449;SDS011;7826;49.784;9.934;2023-04-24T11:32:37;2.43;;;1.30;;
15449;SDS011;7826;49.784;9.934;2023-04-24T11:35:14;1.57;;;1.23;;
15449;SDS011;7826;49.784;9.934;2023-04-24T11:37:43;1.17;;;1.10;;
15449;SDS011;7826;49.784;9.934;2023-04-24T11:40:17;1.23;;;1.10;;
15449;SDS011;7826;49.784;9.934;2023-04-24T11:42:51;1.10;;;1.10;;
15449;SDS011;7826;49.784;9.934;2023-04-24T11:45:24;1.00;;;0.90;;
15449;SDS011;7826;49.784;9.934;2023-04-24T11:47:54;1.37;;;1.10;;
15449;SDS011;7826;49.784;9.934;2023-04-24T11:50:21;1.00;;;1.00;;
15449;SDS011;7826;49.784;9.934;2023-04-24T11:52:51;1.10;;;1.10;;
15449;SDS011;7826;49.784;9.934;2023-04-24T11:57:48;1.00;;;1.00;;
15449;SDS011;7826;49.784;9.934;2023-04-24T12:00:20;0.90;;;0.90;;
15449;SDS011;7826;49.784;9.934;2023-04-24T12:02:48;1.57;;;1.30;;
15449;SDS011;7826;49.784;9.934;2023-04-24T12:05:19;1.10;;;1.10;;
15449;SDS011;7826;49.784;9.934;2023-04-24T12:07:46;2.00;;;1.13;;
15449;SDS011;7826;49.784;9.934;2023-04-24T12:10:12;1.30;;;1.20;;
15449;SDS011;7826;49.784;9.934;2023-04-24T12:12:40;1.40;;;1.30;;
15449;SDS011;7826;49.784;9.934;2023-04-24T12:15:07;1.20;;;1.20;;
15449;SDS011;7826;49.784;9.934;2023-04-24T12:17:34;1.70;;;1.20;;
15449;SDS011;7826;49.784;9.934;2023-04-24T12:20:06;2.53;;;1.10;;
15449;SDS011;7826;49.784;9.934;2023-04-24T12:25:29;1.60;;;1.27;;
15449;SDS011;7826;49.784;9.934;2023-04-24T12:30:30;1.20;;;1.10;;
15449;SDS011;7826;49.784;9.934;2023-04-24T12:32:58;3.53;;;1.17;;
15449;SDS011;7826;49.784;9.934;2023-04-24T12:35:27;1.23;;;1.10;;
15449;SDS011;7826;49.784;9.934;2023-04-24T12:38:10;1.00;;;1.00;;
15449;SDS011;7826;49.784;9.934;2023-04-24T12:40:38;1.00;;;1.00;;
15449;SDS011;7826;49.784;9.934;2023-04-24T12:43:19;2.93;;;1.20;;
15449;SDS011;7826;49.784;9.934;2023-04-24T12:45:47;1.50;;;1.20;;
15449;SDS011;7826;49.784;9.934;2023-04-24T12:48:13;1.20;;;1.20;;
15449;SDS011;7826;49.784;9.934;2023-04-24T12:50:40;0.93;;;0.93;;
15449;SDS011;7826;49.784;9.934;2023-04-24T12:53:07;1.30;;;1.20;;
15449;SDS011;7826;49.784;9.934;2023-04-24T12:55:34;1.27;;;1.27;;
15449;SDS011;7826;49.784;9.934;2023-04-24T12:58:00;1.20;;;1.20;;
15449;SDS011;7826;49.784;9.934;2023-04-24T13:00:28;2.00;;;1.20;;
15449;SDS011;7826;49.784;9.934;2023-04-24T13:02:55;1.37;;;1.23;;
15449;SDS011;7826;49.784;9.934;2023-04-24T13:05:21;1.13;;;1.10;;
15449;SDS011;7826;49.784;9.934;2023-04-24T13:07:47;1.33;;;1.23;;
15449;SDS011;7826;49.784;9.934;2023-04-24T13:10:13;2.10;;;1.30;;
15449;SDS011;7826;49.784;9.934;2023-04-24T13:12:40;1.93;;;1.10;;
15449;SDS011;7826;49.784;9.934;2023-04-24T13:15:06;1.53;;;1.43;;
15449;SDS011;7826;49.784;9.934;2023-04-24T13:17:33;1.17;;;1.17;;
15449;SDS011;7826;49.784;9.934;2023-04-24T13:19:59;1.23;;;1.13;;
15449;SDS011;7826;49.784;9.934;2023-04-24T13:22:26;1.20;;;1.20;;
15449;SDS011;7826;49.784;9.934;2023-04-24T13:24:53;1.80;;;1.20;;
15449;SDS011;7826;49.784;9.934;2023-04-24T13:27:20;1.37;;;1.37;;
15449;SDS011;7826;49.784;9.934;2023-04-24T13:29:46;1.33;;;1.30;;
15449;SDS011;7826;49.784;9.934;2023-04-24T13:32:12;1.93;;;1.30;;
15449;SDS011;7826;49.784;9.934;2023-04-24T13:34:39;2.67;;;1.10;;
15449;SDS011;7826;49.784;9.934;2023-04-24T13:37:05;1.30;;;1.20;;
15449;SDS011;7826;49.784;9.934;2023-04-24T13:39:33;1.23;;;1.07;;
15449;SDS011;7826;49.784;9.934;2023-04-24T13:42:00;1.30;;;1.20;;
15449;SDS011;7826;49.784;9.934;2023-04-24T13:44:30;1.53;;;1.30;;
15449;SDS011;7826;49.784;9.934;2023-04-24T13:46:58;1.33;;;1.20;;
15449;SDS011;7826;49.784;9.934;2023-04-24T13:49:25;1.17;;;1.17;;
15449;SDS011;7826;49.784;9.934;2023-04-24T13:51:52;1.53;;;1.07;;
15449;SDS011;7826;49.784;9.934;2023-04-24T13:54:19;1.50;;;1.40;;
15449;SDS011;7826;49.784;9.934;2023-04-24T13:56:46;1.40;;;1.30;;
15449;SDS011;7826;49.784;9.934;2023-04-24T13:59:12;1.37;;;1.30;;
15449;SDS011;7826;49.784;9.934;2023-04-24T14:01:39;1.20;;;1.10;;
15449;SDS011;7826;49.784;9.934;2023-04-24T14:04:05;1.23;;;1.13;;
15449;SDS011;7826;49.784;9.934;2023-04-24T14:06:31;1.30;;;1.20;;
15449;SDS011;7826;49.784;9.934;2023-04-24T14:08:57;1.30;;;1.20;;
15449;SDS011;7826;49.784;9.934;2023-04-24T14:11:23;1.37;;;1.37;;
15449;SDS011;7826;49.784;9.934;2023-04-24T14:13:49;1.70;;;1.60;;
15449;SDS011;7826;49.784;9.934;2023-04-24T14:16:16;1.37;;;1.27;;
15449;SDS011;7826;49.784;9.934;2023-04-24T14:18:42;1.70;;;1.60;;
15449;SDS011;7826;49.784;9.934;2023-04-24T14:21:08;1.30;;;1.30;;
15449;SDS011;7826;49.784;9.934;2023-04-24T14:23:34;1.50;;;1.40;;
15449;SDS011;7826;49.784;9.934;2023-04-24T14:26:01;1.50;;;1.40;;
15449;SDS011;7826;49.784;9.934;2023-04-24T14:28:27;1.83;;;1.30;;
15449;SDS011;7826;49.784;9.934;2023-04-24T14:30:53;1.47;;;1.40;;
15449;SDS011;7826;49.784;9.934;2023-04-24T14:33:20;3.13;;;1.30;;
15449;SDS011;7826;49.784;9.934;2023-04-24T14:35:46;2.60;;;1.40;;
15449;SDS011;7826;49.784;9.934;2023-04-24T14:38:13;2.07;;;1.40;;
15449;SDS011;7826;49.784;9.934;2023-04-24T14:40:40;1.30;;;1.20;;
15449;SDS011;7826;49.784;9.934;2023-04-24T14:43:06;1.60;;;1.50;;
15449;SDS011;7826;49.784;9.934;2023-04-24T14:45:33;2.30;;;1.50;;
15449;SDS011;7826;49.784;9.934;2023-04-24T14:48:00;2.60;;;1.70;;
15449;SDS011;7826;49.784;9.934;2023-04-24T14:50:26;1.93;;;1.83;;
15449;SDS011;7826;49.784;9.934;2023-04-24T14:52:54;2.00;;;1.70;;
15449;SDS011;7826;49.784;9.934;2023-04-24T14:55:23;1.77;;;1.67;;
15449;SDS011;7826;49.784;9.934;2023-04-24T14:57:50;2.33;;;1.77;;
15449;SDS011;7826;49.784;9.934;2023-04-24T15:00:16;1.30;;;1.30;;
15449;SDS011;7826;49.784;9.934;2023-04-24T15:02:43;1.43;;;1.30;;
15449;SDS011;7826;49.784;9.934;2023-04-24T15:05:10;2.43;;;1.43;;
15449;SDS011;7826;49.784;9.934;2023-04-24T15:07:37;1.20;;;1.20;;
15449;SDS011;7826;49.784;9.934;2023-04-24T15:10:04;2.10;;;1.30;;
15449;SDS011;7826;49.784;9.934;2023-04-24T15:12:31;1.37;;;1.30;;
15449;SDS011;7826;49.784;9.934;2023-04-24T15:14:58;1.80;;;1.70;;
15449;SDS011;7826;49.784;9.934;2023-04-24T15:17:27;1.60;;;1.50;;
15449;SDS011;7826;49.784;9.934;2023-04-24T15:19:53;1.67;;;1.40;;